sensor_id;sensor_type;location;lat;lon;timestamp;pressure;altitude;pressure_sealevel;temperature
82780;BMP280;72511;45.120;20.720;2023-12-20T00:04:16;100423.47;;;4.61
82780;BMP280;72511;45.120;20.720;2023-12-20T00:14:18;100408.19;;;4.62
82780;BMP280;72511;45.120;20.720;2023-12-20T00:24:20;100400.94;;;4.69
82780;BMP280;72511;45.120;20.720;2023-12-20T00:34:22;100389.75;;;4.50
82780;BMP280;72511;45.120;20.720;2023-12-20T00:44:23;100390.03;;;4.41
82780;BMP280;72511;45.120;20.720;2023-12-20T00:54:25;100366.78;;;4.56
82780;BMP280;72511;45.120;20.720;2023-12-20T01:04:27;100349.19;;;4.58
82780;BMP280;72511;45.120;20.720;2023-12-20T01:14:29;100324.69;;;4.60
82780;BMP280;72511;45.120;20.720;2023-12-20T01:24:31;100314.41;;;4.65
82780;BMP280;72511;45.120;20.720;2023-12-20T01:34:33;100311.03;;;4.86
82780;BMP280;72511;45.120;20.720;2023-12-20T01:44:35;100291.03;;;4.69
82780;BMP280;72511;45.120;20.720;2023-12-20T01:54:37;100294.50;;;4.66
82780;BMP280;72511;45.120;20.720;2023-12-20T02:04:39;100273.75;;;4.56
82780;BMP280;72511;45.120;20.720;2023-12-20T02:14:41;100251.13;;;4.43
82780;BMP280;72511;45.120;20.720;2023-12-20T02:24:42;100228.53;;;4.41
82780;BMP280;72511;45.120;20.720;2023-12-20T02:34:44;100221.91;;;4.21
82780;BMP280;72511;45.120;20.720;2023-12-20T02:44:46;100200.81;;;4.05
82780;BMP280;72511;45.120;20.720;2023-12-20T02:54:47;100198.53;;;4.11
82780;BMP280;72511;45.120;20.720;2023-12-20T03:04:48;100198.13;;;4.05
82780;BMP280;72511;45.120;20.720;2023-12-20T03:14:49;100183.53;;;3.95
82780;BMP280;72511;45.120;20.720;2023-12-20T03:24:50;100183.09;;;3.86
82780;BMP280;72511;45.120;20.720;2023-12-20T03:34:52;100168.47;;;3.73
82780;BMP280;72511;45.120;20.720;2023-12-20T03:44:53;100153.53;;;3.69
82780;BMP280;72511;45.120;20.720;2023-12-20T03:54:54;100140.94;;;3.73
82780;BMP280;72511;45.120;20.720;2023-12-20T04:04:56;100136.75;;;3.75
82780;BMP280;72511;45.120;20.720;2023-12-20T04:14:57;100104.19;;;3.63
82780;BMP280;72511;45.120;20.720;2023-12-20T04:24:58;100106.13;;;3.73
82780;BMP280;72511;45.120;20.720;2023-12-20T04:35:00;100074.31;;;3.54
82780;BMP280;72511;45.120;20.720;2023-12-20T04:45:01;100082.88;;;3.77
82780;BMP280;72511;45.120;20.720;2023-12-20T04:55:02;100066.38;;;3.71
82780;BMP280;72511;45.120;20.720;2023-12-20T05:05:03;100066.41;;;3.75
82780;BMP280;72511;45.120;20.720;2023-12-20T05:15:07;100063.38;;;3.80
82780;BMP280;72511;45.120;20.720;2023-12-20T05:25:09;100035.41;;;3.70
82780;BMP280;72511;45.120;20.720;2023-12-20T05:35:10;100058.44;;;3.92
82780;BMP280;72511;45.120;20.720;2023-12-20T05:45:12;100058.44;;;3.96
82780;BMP280;72511;45.120;20.720;2023-12-20T05:55:14;100046.25;;;3.98
82780;BMP280;72511;45.120;20.720;2023-12-20T06:05:15;100029.06;;;4.07
82780;BMP280;72511;45.120;20.720;2023-12-20T06:15:18;100009.13;;;3.97
82780;BMP280;72511;45.120;20.720;2023-12-20T06:25:20;100008.38;;;4.00
82780;BMP280;72511;45.120;20.720;2023-12-20T06:35:23;100000.72;;;3.98
82780;BMP280;72511;45.120;20.720;2023-12-20T06:45:25;100022.16;;;4.05
82780;BMP280;72511;45.120;20.720;2023-12-20T06:55:26;100006.06;;;4.02
82780;BMP280;72511;45.120;20.720;2023-12-20T07:05:28;99988.53;;;4.08
82780;BMP280;72511;45.120;20.720;2023-12-20T07:15:29;99988.53;;;4.26
82780;BMP280;72511;45.120;20.720;2023-12-20T07:25:31;99993.53;;;4.41
82780;BMP280;72511;45.120;20.720;2023-12-20T07:35:35;99998.53;;;4.64
82780;BMP280;72511;45.120;20.720;2023-12-20T07:45:37;99995.78;;;4.92
82780;BMP280;72511;45.120;20.720;2023-12-20T07:55:39;100018.66;;;5.38
82780;BMP280;72511;45.120;20.720;2023-12-20T08:05:40;99996.81;;;5.43
82780;BMP280;72511;45.120;20.720;2023-12-20T08:15:42;99986.34;;;5.70
82780;BMP280;72511;45.120;20.720;2023-12-20T08:25:44;99983.63;;;5.77
82780;BMP280;72511;45.120;20.720;2023-12-20T13:15:18;99859.78;;;6.19
82780;BMP280;72511;45.120;20.720;2023-12-20T13:25:20;99876.53;;;5.93
82780;BMP280;72511;45.120;20.720;2023-12-20T13:35:22;99853.69;;;6.15
82780;BMP280;72511;45.120;20.720;2023-12-20T13:45:25;99835.91;;;5.87
82780;BMP280;72511;45.120;20.720;2023-12-20T13:55:28;99853.25;;;5.72
82780;BMP280;72511;45.120;20.720;2023-12-20T14:05:35;99869.34;;;5.76
82780;BMP280;72511;45.120;20.720;2023-12-20T14:15:38;99893.41;;;5.93
82780;BMP280;72511;45.120;20.720;2023-12-20T14:25:42;99904.03;;;5.46
82780;BMP280;72511;45.120;20.720;2023-12-20T14:35:47;99908.53;;;5.63
82780;BMP280;72511;45.120;20.720;2023-12-20T14:45:50;99913.44;;;4.92
82780;BMP280;72511;45.120;20.720;2023-12-20T14:55:52;99935.25;;;5.05
82780;BMP280;72511;45.120;20.720;2023-12-20T15:05:53;99894.75;;;4.64
82780;BMP280;72511;45.120;20.720;2023-12-20T15:15:55;99920.06;;;4.42
82780;BMP280;72511;45.120;20.720;2023-12-20T15:25:57;99937.66;;;4.19
82780;BMP280;72511;45.120;20.720;2023-12-20T15:35:59;99949.44;;;3.82
82780;BMP280;72511;45.120;20.720;2023-12-20T15:46:00;99957.88;;;3.88
82780;BMP280;72511;45.120;20.720;2023-12-20T15:56:04;99977.75;;;3.97
82780;BMP280;72511;45.120;20.720;2023-12-20T16:06:06;99975.06;;;3.87
82780;BMP280;72511;45.120;20.720;2023-12-20T16:16:07;99968.94;;;3.79
82780;BMP280;72511;45.120;20.720;2023-12-20T16:26:12;99984.19;;;3.72
82780;BMP280;72511;45.120;20.720;2023-12-20T16:36:14;99972.78;;;3.85
82780;BMP280;72511;45.120;20.720;2023-12-20T16:46:17;100000.50;;;3.42
82780;BMP280;72511;45.120;20.720;2023-12-20T16:56:18;100025.66;;;2.77
82780;BMP280;72511;45.120;20.720;2023-12-20T17:06:20;100036.09;;;2.49
82780;BMP280;72511;45.120;20.720;2023-12-20T17:16:21;100049.72;;;2.80
82780;BMP280;72511;45.120;20.720;2023-12-20T17:26:23;100068.34;;;2.33
82780;BMP280;72511;45.120;20.720;2023-12-20T17:36:25;100085.00;;;1.93
82780;BMP280;72511;45.120;20.720;2023-12-20T17:46:27;100091.47;;;1.92
82780;BMP280;72511;45.120;20.720;2023-12-20T17:56:28;100098.19;;;1.79
82780;BMP280;72511;45.120;20.720;2023-12-20T18:06:31;100135.41;;;1.99
82780;BMP280;72511;45.120;20.720;2023-12-20T18:16:32;100115.28;;;2.05
82780;BMP280;72511;45.120;20.720;2023-12-20T18:26:34;100134.84;;;1.86
82780;BMP280;72511;45.120;20.720;2023-12-20T18:36:36;100160.38;;;1.83
82780;BMP280;72511;45.120;20.720;2023-12-20T18:46:38;100150.44;;;1.80
82780;BMP280;72511;45.120;20.720;2023-12-20T18:56:39;100165.75;;;1.87
82780;BMP280;72511;45.120;20.720;2023-12-20T19:06:43;100179.78;;;1.80
82780;BMP280;72511;45.120;20.720;2023-12-20T19:16:45;100187.44;;;1.85
82780;BMP280;72511;45.120;20.720;2023-12-20T19:26:48;100184.81;;;1.89
82780;BMP280;72511;45.120;20.720;2023-12-20T19:36:49;100191.28;;;1.62
82780;BMP280;72511;45.120;20.720;2023-12-20T19:46:51;100190.50;;;1.61
82780;BMP280;72511;45.120;20.720;2023-12-20T19:56:52;100198.50;;;1.61
82780;BMP280;72511;45.120;20.720;2023-12-20T20:06:53;100197.97;;;1.52
82780;BMP280;72511;45.120;20.720;2023-12-20T20:16:55;100196.72;;;1.46
82780;BMP280;72511;45.120;20.720;2023-12-20T20:26:56;100213.25;;;1.33
82780;BMP280;72511;45.120;20.720;2023-12-20T20:36:57;100211.06;;;1.16
82780;BMP280;72511;45.120;20.720;2023-12-20T20:47:00;100243.72;;;1.32
82780;BMP280;72511;45.120;20.720;2023-12-20T20:57:02;100240.09;;;1.43
82780;BMP280;72511;45.120;20.720;2023-12-20T21:07:04;100226.59;;;1.33
82780;BMP280;72511;45.120;20.720;2023-12-20T21:17:05;100214.22;;;1.21
82780;BMP280;72511;45.120;20.720;2023-12-20T21:27:07;100234.06;;;1.46
82780;BMP280;72511;45.120;20.720;2023-12-20T21:37:11;100234.59;;;1.78
82780;BMP280;72511;45.120;20.720;2023-12-20T21:47:13;100227.66;;;2.00
82780;BMP280;72511;45.120;20.720;2023-12-20T21:57:14;100213.28;;;2.04
82780;BMP280;72511;45.120;20.720;2023-12-20T22:07:15;100216.81;;;2.12
82780;BMP280;72511;45.120;20.720;2023-12-20T22:17:17;100211.94;;;2.17
82780;BMP280;72511;45.120;20.720;2023-12-20T22:27:18;100196.69;;;1.92
82780;BMP280;72511;45.120;20.720;2023-12-20T22:37:19;100212.63;;;1.88
82780;BMP280;72511;45.120;20.720;2023-12-20T22:47:22;100189.00;;;1.64
82780;BMP280;72511;45.120;20.720;2023-12-20T22:57:24;100182.94;;;1.63
82780;BMP280;72511;45.120;20.720;2023-12-20T23:07:26;100200.75;;;1.82
82780;BMP280;72511;45.120;20.720;2023-12-20T23:17:27;100191.97;;;1.81
82780;BMP280;72511;45.120;20.720;2023-12-20T23:27:29;100184.78;;;1.85
82780;BMP280;72511;45.120;20.720;2023-12-20T23:37:31;100187.59;;;1.96
82780;BMP280;72511;45.120;20.720;2023-12-20T23:47:33;100194.06;;;1.95
82780;BMP280;72511;45.120;20.720;2023-12-20T23:57:35;100196.94;;;1.83
